createdAt,value
2023-03-20T00:01:14.376Z,8.20
2023-03-20T00:03:41.507Z,8.20
2023-03-20T00:06:31.530Z,8.20
2023-03-20T00:08:58.563Z,8.20
2023-03-20T00:11:26.660Z,8.20
2023-03-20T00:13:54.129Z,8.20
2023-03-20T00:16:22.854Z,8.20
2023-03-20T00:18:50.693Z,8.20
2023-03-20T00:21:18.500Z,8.20
2023-03-20T00:23:46.251Z,8.30
2023-03-20T00:26:14.782Z,8.30
2023-03-20T00:28:43.936Z,8.30
2023-03-20T00:31:28.447Z,8.30
2023-03-20T00:33:57.420Z,8.30
2023-03-20T00:36:24.780Z,8.30
2023-03-20T00:38:52.007Z,8.20
2023-03-20T00:41:25.847Z,8.20
2023-03-20T00:43:55.577Z,8.30
2023-03-20T00:46:23.189Z,8.30
2023-03-20T00:48:50.896Z,8.30
2023-03-20T00:51:18.463Z,8.30
2023-03-20T00:53:45.524Z,8.30
2023-03-20T00:56:32.933Z,8.20
2023-03-20T00:59:01.228Z,8.30
2023-03-20T01:01:29.051Z,8.20
2023-03-20T01:03:56.062Z,8.20
2023-03-20T01:06:23.355Z,8.30
2023-03-20T01:08:50.284Z,8.20
2023-03-20T01:11:21.831Z,8.20
2023-03-20T01:13:49.147Z,8.20
2023-03-20T01:16:21.401Z,8.20
2023-03-20T01:18:48.738Z,8.10
2023-03-20T01:21:16.327Z,8.10
2023-03-20T01:23:44.067Z,8.10
2023-03-20T01:26:32.508Z,8.10
2023-03-20T01:28:59.591Z,8.10
2023-03-20T01:31:28.140Z,8.00
2023-03-20T01:33:55.324Z,8.00
2023-03-20T01:36:23.718Z,8.00
2023-03-20T01:38:56.221Z,7.90
2023-03-20T01:41:25.100Z,7.90
2023-03-20T01:43:52.456Z,7.90
2023-03-20T01:46:31.989Z,7.90
2023-03-20T01:49:20.672Z,7.90
2023-03-20T01:51:50.999Z,7.90
2023-03-20T01:54:25.438Z,7.90
2023-03-20T01:56:58.879Z,7.90
2023-03-20T01:59:32.426Z,7.90
2023-03-20T02:02:00.786Z,7.90
2023-03-20T02:04:31.393Z,7.90
2023-03-20T02:07:06.736Z,7.90
2023-03-20T02:09:52.420Z,7.90
2023-03-20T02:12:26.693Z,7.90
2023-03-20T02:14:54.477Z,7.90
2023-03-20T02:17:31.930Z,7.90
2023-03-20T02:20:04.564Z,7.90
2023-03-20T02:22:31.940Z,7.90
2023-03-20T02:25:16.600Z,7.90
2023-03-20T02:27:49.313Z,7.90
2023-03-20T02:30:38.796Z,7.90
2023-03-20T02:33:07.260Z,8.00
2023-03-20T02:35:54.618Z,8.00
2023-03-20T02:38:24.845Z,7.90
2023-03-20T02:41:04.475Z,7.90
2023-03-20T02:43:31.499Z,7.90
2023-03-20T02:46:18.419Z,7.90
2023-03-20T02:48:46.495Z,7.90
2023-03-20T02:51:18.330Z,7.90
2023-03-20T02:53:45.315Z,7.90
2023-03-20T02:56:17.548Z,7.90
2023-03-20T02:59:00.787Z,7.90
2023-03-20T03:01:31.705Z,8.00
2023-03-20T03:04:09.060Z,8.00
2023-03-20T03:06:37.938Z,8.10
2023-03-20T03:09:07.728Z,8.10
2023-03-20T03:11:36.290Z,8.00
2023-03-20T03:14:05.237Z,8.00
2023-03-20T03:16:35.055Z,8.00
2023-03-20T03:19:14.003Z,8.00
2023-03-20T03:21:41.871Z,8.00
2023-03-20T03:24:39.251Z,7.90
2023-03-20T03:27:18.304Z,7.90
2023-03-20T03:29:48.815Z,7.80
2023-03-20T03:32:22.119Z,7.80
2023-03-20T03:34:51.002Z,7.80
2023-03-20T03:37:27.069Z,7.80
2023-03-20T03:39:57.967Z,7.80
2023-03-20T03:42:28.231Z,7.80
2023-03-20T03:45:01.738Z,7.80
2023-03-20T03:47:35.050Z,7.80
2023-03-20T03:50:12.528Z,7.80
2023-03-20T03:52:44.470Z,7.70
2023-03-20T03:55:16.730Z,7.70
2023-03-20T03:58:02.807Z,7.70
2023-03-20T04:00:32.215Z,7.70
2023-03-20T04:02:59.456Z,7.70
2023-03-20T04:05:29.845Z,7.70
2023-03-20T04:07:58.376Z,7.70
2023-03-20T04:10:25.691Z,7.70
2023-03-20T04:12:55.140Z,7.70
2023-03-20T04:15:22.179Z,7.70
2023-03-20T04:17:49.573Z,7.60
2023-03-20T04:20:17.819Z,7.60
2023-03-20T04:22:47.156Z,7.60
2023-03-20T04:25:27.744Z,7.60
2023-03-20T04:27:56.769Z,7.60
2023-03-20T04:30:48.323Z,7.60
2023-03-20T04:33:33.723Z,7.60
2023-03-20T04:36:07.040Z,7.60
2023-03-20T04:38:34.106Z,7.60
2023-03-20T04:41:02.307Z,7.50
2023-03-20T04:43:29.324Z,7.50
2023-03-20T04:45:56.695Z,7.50
2023-03-20T04:48:23.823Z,7.50
2023-03-20T04:50:51.652Z,7.60
2023-03-20T04:53:26.072Z,7.60
2023-03-20T04:55:54.471Z,7.60
2023-03-20T04:58:22.370Z,7.50
2023-03-20T05:00:50.180Z,7.50
2023-03-20T05:03:17.177Z,7.50
2023-03-20T05:05:44.638Z,7.50
2023-03-20T05:08:11.947Z,7.50
2023-03-20T05:10:40.056Z,7.50
2023-03-20T05:13:21.947Z,7.50
2023-03-20T05:15:58.255Z,7.60
2023-03-20T05:18:47.944Z,7.60
2023-03-20T05:21:37.848Z,7.60
2023-03-20T05:24:21.103Z,7.60
2023-03-20T05:27:03.410Z,7.70
2023-03-20T05:29:57.033Z,7.70
2023-03-20T05:32:49.595Z,7.70
2023-03-20T05:35:39.870Z,7.70
2023-03-20T05:38:22.886Z,7.70
2023-03-20T05:41:03.641Z,7.70
2023-03-20T05:43:43.673Z,7.70
2023-03-20T05:46:34.855Z,7.70
2023-03-20T05:49:25.019Z,7.70
2023-03-20T05:51:52.429Z,7.70
2023-03-20T05:54:42.556Z,7.70
2023-03-20T05:57:22.054Z,7.70
2023-03-20T05:59:51.854Z,7.60
2023-03-20T06:02:47.198Z,7.60
2023-03-20T06:05:41.642Z,7.70
2023-03-20T06:08:09.712Z,7.80
2023-03-20T06:10:36.983Z,7.90
2023-03-20T06:13:04.341Z,7.90
2023-03-20T06:15:31.709Z,7.90
2023-03-20T06:18:09.859Z,8.00
2023-03-20T06:20:37.281Z,8.10
2023-03-20T06:23:06.762Z,8.20
2023-03-20T06:25:34.655Z,8.30
2023-03-20T06:28:02.214Z,8.40
2023-03-20T06:30:30.062Z,8.40
2023-03-20T06:32:57.143Z,8.50
2023-03-20T06:35:32.163Z,8.60
2023-03-20T06:37:59.468Z,8.70
2023-03-20T06:42:56.309Z,8.90
2023-03-20T06:45:28.617Z,9.00
2023-03-20T06:47:58.498Z,9.20
2023-03-20T06:50:25.760Z,9.20
2023-03-20T06:52:53.479Z,9.20
2023-03-20T06:55:32.957Z,9.20
2023-03-20T06:58:01.084Z,9.20
2023-03-20T07:00:29.875Z,9.30
2023-03-20T07:03:00.372Z,9.60
2023-03-20T07:05:28.785Z,9.80
2023-03-20T07:07:57.840Z,10.00
2023-03-20T07:10:26.752Z,9.90
2023-03-20T07:12:55.069Z,10.10
2023-03-20T07:15:22.726Z,10.70
2023-03-20T07:17:50.810Z,10.80
2023-03-20T07:20:18.289Z,10.60
2023-03-20T07:22:48.016Z,10.40
2023-03-20T07:25:35.486Z,10.50
2023-03-20T07:28:09.455Z,10.40
2023-03-20T07:30:39.395Z,10.50
2023-03-20T07:33:08.036Z,10.60
2023-03-20T07:35:36.493Z,10.70
2023-03-20T07:38:03.852Z,10.60
2023-03-20T07:40:32.519Z,10.70
2023-03-20T07:43:08.331Z,10.80
2023-03-20T07:46:07.488Z,10.80
2023-03-20T07:48:37.479Z,10.80
2023-03-20T07:51:04.835Z,10.80
2023-03-20T07:53:32.567Z,10.80
2023-03-20T07:55:59.549Z,10.60
2023-03-20T07:58:27.039Z,10.60
2023-03-20T08:00:54.064Z,10.70
2023-03-20T08:03:21.342Z,10.80
2023-03-20T08:05:48.394Z,10.70
2023-03-20T08:08:15.798Z,10.60
2023-03-20T08:10:42.906Z,10.50
2023-03-20T08:13:10.149Z,10.50
2023-03-20T08:15:37.394Z,10.60
2023-03-20T08:18:05.357Z,10.60
2023-03-20T08:20:32.448Z,10.50
2023-03-20T08:22:59.593Z,10.50
2023-03-20T08:25:28.149Z,10.60
2023-03-20T08:27:55.693Z,10.70
2023-03-20T08:30:22.795Z,10.60
2023-03-20T08:32:50.098Z,10.70
2023-03-20T08:35:32.209Z,10.70
2023-03-20T08:38:00.056Z,10.70
2023-03-20T08:40:27.227Z,10.70
2023-03-20T08:42:54.222Z,10.60
2023-03-20T08:45:21.748Z,10.70
2023-03-20T08:47:49.093Z,10.70
2023-03-20T08:50:16.356Z,10.80
2023-03-20T08:52:44.411Z,10.90
2023-03-20T08:55:12.126Z,11.00
2023-03-20T08:57:39.865Z,11.20
2023-03-20T09:00:08.262Z,11.50
2023-03-20T09:02:36.326Z,11.70
2023-03-20T09:05:03.480Z,11.70
2023-03-20T09:07:30.678Z,11.50
2023-03-20T09:09:57.662Z,11.40
2023-03-20T09:12:25.091Z,11.70
2023-03-20T09:14:52.075Z,11.70
2023-03-20T09:17:19.286Z,11.70
2023-03-20T09:19:46.279Z,11.80
2023-03-20T09:22:14.063Z,11.90
2023-03-20T09:24:41.977Z,12.00
2023-03-20T09:27:09.233Z,11.90
2023-03-20T09:29:36.235Z,12.20
2023-03-20T09:32:03.398Z,12.40
2023-03-20T09:34:30.446Z,12.50
2023-03-20T09:36:57.758Z,12.60
2023-03-20T09:39:24.860Z,12.60
2023-03-20T09:41:57.568Z,12.60
2023-03-20T09:44:39.202Z,12.70
2023-03-20T09:47:25.205Z,12.90
2023-03-20T09:50:01.379Z,12.90
2023-03-20T09:52:33.258Z,12.90
2023-03-20T09:55:12.666Z,12.80
2023-03-20T09:57:40.799Z,12.80
2023-03-20T10:00:28.442Z,12.80
2023-03-20T10:03:06.368Z,13.00
2023-03-20T10:05:38.164Z,13.20
2023-03-20T10:08:06.964Z,13.20
2023-03-20T10:10:40.075Z,13.00
2023-03-20T10:13:13.023Z,12.70
2023-03-20T10:15:52.984Z,12.30
2023-03-20T10:18:29.823Z,12.00
2023-03-20T10:20:59.833Z,11.90
2023-03-20T10:23:33.451Z,11.90
2023-03-20T10:26:06.482Z,11.80
2023-03-20T10:28:37.923Z,11.60
2023-03-20T10:31:08.220Z,11.70
2023-03-20T10:33:47.271Z,11.70
2023-03-20T10:36:14.413Z,11.80
2023-03-20T10:39:00.385Z,11.80
2023-03-20T10:41:32.510Z,11.70
2023-03-20T10:43:59.823Z,11.70
2023-03-20T10:46:34.868Z,11.80
2023-03-20T10:49:08.848Z,11.80
2023-03-20T10:51:56.289Z,11.80
2023-03-20T10:54:25.334Z,11.80
2023-03-20T10:56:56.732Z,11.80
2023-03-20T10:59:28.386Z,11.80
2023-03-20T11:01:55.675Z,11.90
2023-03-20T11:04:22.665Z,11.90
2023-03-20T11:06:52.552Z,11.90
2023-03-20T11:09:20.818Z,11.70
2023-03-20T11:11:48.053Z,11.50
2023-03-20T11:14:19.187Z,11.40
2023-03-20T11:16:50.379Z,11.20
2023-03-20T11:19:19.259Z,11.10
2023-03-20T11:21:56.996Z,10.90
2023-03-20T11:24:27.003Z,10.30
2023-03-20T11:26:54.516Z,10.00
2023-03-20T11:29:29.229Z,9.80
2023-03-20T11:32:03.856Z,9.80
2023-03-20T11:34:32.622Z,9.60
2023-03-20T11:37:16.457Z,9.30
2023-03-20T11:39:52.932Z,9.00
2023-03-20T11:42:26.153Z,8.80
2023-03-20T11:45:00.463Z,8.50
2023-03-20T11:47:28.933Z,8.40
2023-03-20T11:49:59.917Z,8.40
2023-03-20T11:52:29.233Z,8.30
2023-03-20T11:54:59.109Z,8.30
2023-03-20T11:57:34.358Z,8.30
2023-03-20T12:00:02.648Z,8.40
2023-03-20T12:02:32.256Z,8.40
2023-03-20T12:05:00.547Z,8.50
2023-03-20T12:07:32.767Z,8.60
2023-03-20T12:10:12.664Z,8.70
2023-03-20T12:12:45.823Z,8.80
2023-03-20T12:15:12.744Z,8.90
2023-03-20T12:17:58.691Z,9.00
2023-03-20T12:20:28.829Z,9.10
2023-03-20T12:23:02.754Z,9.30
2023-03-20T12:25:38.517Z,9.40
2023-03-20T12:28:11.876Z,9.50
2023-03-20T12:30:41.996Z,9.70
2023-03-20T12:33:29.468Z,10.00
2023-03-20T12:35:58.277Z,10.60
2023-03-20T12:38:30.750Z,11.00
2023-03-20T12:41:07.927Z,11.10
2023-03-20T12:44:01.960Z,11.10
2023-03-20T12:46:29.027Z,11.10
2023-03-20T12:49:20.043Z,10.90
2023-03-20T12:52:07.485Z,10.90
2023-03-20T12:54:40.898Z,11.10
2023-03-20T12:57:11.087Z,11.20
2023-03-20T12:59:48.289Z,11.30
2023-03-20T13:02:15.863Z,11.40
2023-03-20T13:05:00.912Z,11.50
2023-03-20T13:07:46.548Z,11.40
2023-03-20T13:10:16.541Z,11.40
2023-03-20T13:13:01.849Z,11.50
2023-03-20T13:15:37.862Z,11.50
2023-03-20T13:18:25.406Z,11.40
2023-03-20T13:20:55.452Z,11.20
2023-03-20T13:23:26.243Z,11.10
2023-03-20T13:26:19.656Z,11.10
2023-03-20T13:28:48.942Z,11.10
2023-03-20T13:31:15.969Z,11.20
2023-03-20T13:33:43.253Z,11.40
2023-03-20T13:36:10.386Z,11.50
2023-03-20T13:38:40.166Z,11.50
2023-03-20T13:41:11.003Z,11.60
2023-03-20T13:43:40.936Z,11.70
2023-03-20T13:46:10.701Z,11.90
2023-03-20T13:48:41.400Z,12.00
2023-03-20T13:51:30.015Z,12.00
2023-03-20T13:54:15.516Z,12.00
2023-03-20T13:56:42.545Z,11.90
2023-03-20T13:59:29.721Z,11.80
2023-03-20T14:02:03.039Z,11.80
2023-03-20T14:04:30.871Z,11.70
2023-03-20T14:06:59.370Z,11.60
2023-03-20T14:09:26.644Z,11.70
2023-03-20T14:11:54.638Z,11.80
2023-03-20T14:14:32.339Z,11.90
2023-03-20T14:17:09.093Z,12.00
2023-03-20T14:19:37.761Z,12.00
2023-03-20T14:22:05.164Z,11.80
2023-03-20T14:24:37.892Z,11.80
2023-03-20T14:27:05.762Z,11.80
2023-03-20T14:29:38.698Z,11.80
2023-03-20T14:32:14.559Z,11.80
2023-03-20T14:34:48.938Z,11.80
2023-03-20T14:37:34.440Z,11.70
2023-03-20T14:40:01.381Z,11.60
2023-03-20T14:43:00.960Z,11.60
2023-03-20T14:45:28.733Z,11.50
2023-03-20T14:48:02.327Z,11.60
2023-03-20T14:50:32.400Z,11.60
2023-03-20T14:53:00.494Z,11.70
2023-03-20T14:55:30.577Z,11.70
2023-03-20T14:58:05.567Z,11.80
2023-03-20T15:00:44.162Z,11.80
2023-03-20T15:03:14.081Z,11.80
2023-03-20T15:05:42.293Z,11.90
2023-03-20T15:08:11.355Z,11.90
2023-03-20T15:10:45.557Z,11.90
2023-03-20T15:13:13.910Z,11.90
2023-03-20T15:15:51.312Z,11.90
2023-03-20T15:18:20.647Z,11.90
2023-03-20T15:20:47.687Z,11.90
2023-03-20T15:23:14.826Z,11.90
2023-03-20T15:25:46.159Z,11.90
2023-03-20T15:28:23.706Z,11.90
2023-03-20T15:30:53.659Z,11.90
2023-03-20T15:33:26.469Z,11.90
2023-03-20T15:35:53.607Z,11.80
2023-03-20T15:38:21.041Z,11.80
2023-03-20T15:40:51.489Z,11.80
2023-03-20T15:43:24.067Z,11.80
2023-03-20T15:46:02.912Z,11.80
2023-03-20T15:48:33.996Z,11.80
2023-03-20T15:51:05.138Z,11.80
2023-03-20T15:53:34.710Z,11.80
2023-03-20T15:56:16.807Z,11.80
2023-03-20T15:58:45.859Z,11.70
2023-03-20T16:01:17.381Z,11.70
2023-03-20T16:03:45.800Z,11.70
2023-03-20T16:06:15.439Z,11.70
2023-03-20T16:08:42.988Z,11.70
2023-03-20T16:11:14.037Z,11.60
2023-03-20T16:13:42.575Z,11.60
2023-03-20T16:16:14.355Z,11.70
2023-03-20T16:18:41.771Z,11.60
2023-03-20T16:21:11.260Z,11.60
2023-03-20T16:23:49.859Z,11.60
2023-03-20T16:26:18.017Z,11.60
2023-03-20T16:28:55.054Z,11.60
2023-03-20T16:31:29.830Z,11.50
2023-03-20T16:34:01.184Z,11.50
2023-03-20T16:36:32.403Z,11.50
2023-03-20T16:38:59.676Z,11.50
2023-03-20T16:41:36.033Z,11.50
2023-03-20T16:44:12.654Z,11.50
2023-03-20T16:46:57.963Z,11.50
2023-03-20T16:49:34.666Z,11.50
2023-03-20T16:52:03.358Z,11.40
2023-03-20T16:54:32.004Z,11.40
2023-03-20T16:56:59.897Z,11.40
2023-03-20T16:59:26.875Z,11.30
2023-03-20T17:01:58.823Z,11.40
2023-03-20T17:04:33.624Z,11.40
2023-03-20T17:07:25.633Z,11.30
2023-03-20T17:09:57.611Z,11.00
2023-03-20T17:12:25.847Z,10.80
2023-03-20T17:14:53.623Z,10.70
2023-03-20T17:17:22.368Z,10.70
2023-03-20T17:19:53.234Z,10.70
2023-03-20T17:22:22.216Z,10.80
2023-03-20T17:24:49.879Z,10.70
2023-03-20T17:27:18.225Z,10.80
2023-03-20T17:29:46.319Z,10.70
2023-03-20T17:32:14.604Z,10.70
2023-03-20T17:34:42.966Z,10.70
2023-03-20T17:37:14.369Z,10.70
2023-03-20T17:39:41.923Z,10.70
2023-03-20T17:42:18.926Z,10.70
2023-03-20T17:44:47.251Z,10.70
2023-03-20T17:47:18.866Z,10.70
2023-03-20T17:49:46.524Z,10.80
2023-03-20T17:52:15.307Z,10.70
2023-03-20T17:54:43.046Z,10.70
2023-03-20T17:57:20.011Z,10.70
2023-03-20T17:59:47.788Z,10.70
2023-03-20T18:02:15.505Z,10.70
2023-03-20T18:04:42.552Z,10.70
2023-03-20T18:07:09.683Z,10.70
2023-03-20T18:09:36.866Z,10.70
2023-03-20T18:12:03.991Z,10.70
2023-03-20T18:14:31.127Z,10.60
2023-03-20T18:16:58.068Z,10.60
2023-03-20T18:19:28.384Z,10.60
2023-03-20T18:21:55.980Z,10.60
2023-03-20T18:24:23.789Z,10.60
2023-03-20T18:26:51.579Z,10.60
2023-03-20T18:29:18.969Z,10.50
2023-03-20T18:31:47.128Z,10.50
2023-03-20T18:34:14.592Z,10.50
2023-03-20T18:36:41.661Z,10.50
2023-03-20T18:39:09.014Z,10.50
2023-03-20T18:41:35.996Z,10.60
2023-03-20T18:44:03.125Z,10.60
2023-03-20T18:46:30.263Z,10.50
2023-03-20T18:48:58.119Z,10.50
2023-03-20T18:51:26.071Z,10.50
2023-03-20T18:53:53.175Z,10.50
2023-03-20T18:56:21.404Z,10.50
2023-03-20T18:58:49.252Z,10.50
2023-03-20T19:01:16.679Z,10.50
2023-03-20T19:03:44.734Z,10.50
2023-03-20T19:06:19.379Z,10.50
2023-03-20T19:08:49.324Z,10.40
2023-03-20T19:11:20.550Z,10.40
2023-03-20T19:13:51.245Z,10.40
2023-03-20T19:16:26.893Z,10.40
2023-03-20T19:18:55.128Z,10.40
2023-03-20T19:21:26.382Z,10.40
2023-03-20T19:23:54.310Z,10.40
2023-03-20T19:26:21.694Z,10.40
2023-03-20T19:28:51.366Z,10.30
2023-03-20T19:31:21.003Z,10.30
2023-03-20T19:33:49.235Z,10.30
2023-03-20T19:36:24.467Z,10.20
2023-03-20T19:38:52.073Z,10.20
2023-03-20T19:41:20.110Z,10.20
2023-03-20T19:43:53.103Z,10.20
2023-03-20T19:46:38.683Z,10.20
2023-03-20T19:49:10.108Z,10.10
2023-03-20T19:51:37.094Z,10.10
2023-03-20T19:54:04.566Z,10.00
2023-03-20T19:56:31.500Z,10.00
2023-03-20T19:58:58.807Z,9.90
2023-03-20T20:01:26.029Z,9.90
2023-03-20T20:03:58.361Z,9.90
2023-03-20T20:06:31.384Z,9.90
2023-03-20T20:08:59.935Z,9.80
2023-03-20T20:11:26.843Z,9.80
2023-03-20T20:14:10.566Z,9.70
2023-03-20T20:16:42.573Z,9.70
2023-03-20T20:19:10.450Z,9.70
2023-03-20T20:24:24.592Z,9.60
2023-03-20T20:26:59.978Z,9.50
2023-03-20T20:29:34.495Z,9.50
2023-03-20T20:32:01.689Z,9.40
2023-03-20T20:40:05.114Z,9.30
2023-03-20T20:42:32.294Z,9.30
2023-03-20T20:44:59.362Z,9.20
2023-03-20T20:47:26.347Z,9.10
2023-03-20T20:49:53.889Z,9.00
2023-03-20T20:52:20.896Z,8.90
2023-03-20T20:54:48.323Z,8.90
2023-03-20T20:57:15.610Z,8.90
2023-03-20T20:59:42.724Z,8.90
2023-03-20T21:02:15.625Z,8.80
2023-03-20T21:04:43.768Z,8.80
2023-03-20T21:07:11.890Z,8.70
2023-03-20T21:09:39.613Z,8.70
2023-03-20T21:12:08.071Z,8.70
2023-03-20T21:14:35.860Z,8.60
2023-03-20T21:17:06.089Z,8.60
2023-03-20T21:19:35.057Z,8.50
2023-03-20T21:22:02.125Z,8.60
2023-03-20T21:24:33.979Z,8.60
2023-03-20T21:27:03.189Z,8.50
2023-03-20T21:29:30.869Z,8.50
2023-03-20T21:31:57.987Z,8.50
2023-03-20T21:34:25.454Z,8.40
2023-03-20T21:36:55.793Z,8.50
2023-03-20T21:39:23.315Z,8.50
2023-03-20T21:41:50.409Z,8.50
2023-03-20T21:44:24.535Z,8.50
2023-03-20T21:53:23.970Z,8.50
2023-03-20T21:58:56.374Z,8.40
2023-03-20T22:01:48.854Z,8.40
2023-03-20T22:07:23.923Z,8.40
2023-03-20T22:13:07.356Z,8.30
2023-03-20T22:18:19.396Z,8.30
2023-03-20T22:27:01.585Z,8.20
2023-03-20T22:38:02.473Z,8.20
2023-03-20T22:43:28.081Z,8.10
2023-03-20T22:46:03.333Z,8.00
2023-03-20T22:48:32.761Z,8.00
2023-03-20T22:51:00.169Z,8.00
2023-03-20T22:53:27.214Z,8.00
2023-03-20T22:55:54.590Z,8.00
2023-03-20T22:58:21.514Z,8.00
2023-03-20T23:00:48.858Z,8.00
2023-03-20T23:03:29.571Z,8.00
2023-03-20T23:06:27.537Z,7.90
2023-03-20T23:09:03.137Z,8.00
2023-03-20T23:11:33.005Z,8.00
2023-03-20T23:14:00.969Z,7.90
2023-03-20T23:16:28.295Z,7.90
2023-03-20T23:18:55.576Z,7.90
2023-03-20T23:21:22.919Z,7.90
2023-03-20T23:23:49.910Z,7.90
2023-03-20T23:26:20.480Z,7.90
2023-03-20T23:28:48.304Z,7.90
2023-03-20T23:31:17.990Z,7.90
2023-03-20T23:33:48.356Z,7.80
2023-03-20T23:36:32.582Z,7.80
2023-03-20T23:39:02.484Z,7.80
2023-03-20T23:41:57.352Z,7.90
2023-03-20T23:44:16.924Z,7.80
2023-03-20T23:46:46.296Z,7.80
2023-03-20T23:49:14.532Z,7.70
2023-03-20T23:51:41.724Z,7.70
2023-03-20T23:54:08.740Z,7.80
2023-03-20T23:56:36.049Z,7.80
2023-03-20T23:59:18.254Z,7.80
